Nearby METAR Reports

 

CYOW - Ottawa Intl, Ontario, Canada
Distance from station: NNW 27km
Updated: 12/08/2021 10:36am
Light snow, Overcast
Light snow, Overcast
 Wind from ENE
Wind: ENE 24 km/h
Temperature: -8°C
Wind Chill: -16°C
Dew Point: -11°C
Humidity: 79%
Barometer: 1018.3 hPa
Summary: Light Snow
Clouds: Overcast
Visibility: 2.4 km
Cloud details: Mostly cloudy 853 m
Overcast 1219 m
2021/12/08 15:36 CYOW 081536Z 07013KT 1 1/2SM -SN BKN028 OVC040 M08/M11 A3007 RMK SN3SC3SC2 SLP191
KMSS - Massena, New York, USA
Distance from station: ESE 54km
Updated: 12/08/2021 10:37am
Light snow, Overcast
Light snow, Overcast
 Wind from ENE
Wind: ENE 22 km/h
Temperature: -6°C
Wind Chill: -13°C
Dew Point: -9°C
Humidity: 80%
Barometer: 1018.6 hPa
Summary: Light Snow
Clouds: Overcast
Visibility: 5 km
Cloud details: Mostly cloudy 853 m
Overcast 1097 m
2021/12/08 15:37 KMSS 081537Z AUTO 07012KT 3SM -SN BKN028 OVC036 M06/M09 A3008 RMK AO2 P0000 T10611089
KOGS - Ogdensburg Intl, New York, USA
Distance from station: S 48km
Updated: 12/08/2021 10:35am
Light snow, Clear
Light snow, Clear
 Wind from ENE
Wind: ENE 13 km/h
Temperature: -5°C
Wind Chill: -10°C
Dew Point: -7°C
Humidity: 86%
Barometer: 1016.6 hPa
Summary: Light Snow
Clouds: Clear
Visibility: 8 km
2021/12/08 15:35 KOGS 081535Z AUTO 07007KT 5SM -SN CLR M05/M07 A3002 RMK AO2
 
CXKE - Kemptville, Ontario, Canada
Distance from station: SW 15km
Updated: 12/08/2021 10:00am

 Wind from E
Wind: E 6 km/h
Temperature: -6°C
Dew Point: -9°C
Humidity: 80%
2021/12/08 15:00 CXKE 081500Z AUTO 08003KT M06/M09 RMK AO1 8020 SLP182 T10631088 50001